createdAt,value
2018-09-14T00:02:16.989Z,7.47
2018-09-14T00:04:44.191Z,7.40
2018-09-14T00:07:11.468Z,7.00
2018-09-14T00:09:38.715Z,6.90
2018-09-14T00:12:06.307Z,7.10
2018-09-14T00:14:33.607Z,6.43
2018-09-14T00:17:00.857Z,7.83
2018-09-14T00:19:28.064Z,7.50
2018-09-14T00:21:55.234Z,8.10
2018-09-14T00:24:22.517Z,7.80
2018-09-14T00:26:49.703Z,7.10
2018-09-14T00:29:17.122Z,7.70
2018-09-14T00:34:42.157Z,8.20
2018-09-14T00:37:09.379Z,8.10
2018-09-14T00:39:36.648Z,8.17
2018-09-14T00:42:03.879Z,7.73
2018-09-14T00:44:31.084Z,7.70
2018-09-14T00:46:58.606Z,8.43
2018-09-14T00:49:26.069Z,8.43
2018-09-14T00:51:53.267Z,7.90
2018-09-14T00:54:20.482Z,7.53
2018-09-14T00:56:47.691Z,7.40
2018-09-14T00:59:15.022Z,7.80
2018-09-14T01:01:42.196Z,6.50
2018-09-14T01:04:09.390Z,8.00
2018-09-14T01:06:36.582Z,7.23
2018-09-14T01:09:05.422Z,6.70
2018-09-14T01:11:32.624Z,6.37
2018-09-14T01:14:00.176Z,6.50
2018-09-14T01:16:27.902Z,6.30
2018-09-14T01:18:55.074Z,6.17
2018-09-14T01:21:22.277Z,6.90
2018-09-14T01:23:49.663Z,6.50
2018-09-14T01:26:16.862Z,6.83
2018-09-14T01:28:44.048Z,7.00
2018-09-14T01:31:11.297Z,6.87
2018-09-14T01:33:38.495Z,7.30
2018-09-14T01:36:11.709Z,7.70
2018-09-14T01:38:39.019Z,6.70
2018-09-14T01:41:06.351Z,7.23
2018-09-14T01:43:33.562Z,7.40
2018-09-14T01:46:00.841Z,7.20
2018-09-14T01:48:28.031Z,7.43
2018-09-14T01:50:55.817Z,7.60
2018-09-14T01:53:23.249Z,7.37
2018-09-14T01:55:50.496Z,7.90
2018-09-14T01:58:18.173Z,8.20
2018-09-14T02:00:45.597Z,9.07
2018-09-14T02:03:12.827Z,8.67
2018-09-14T02:05:40.542Z,8.67
2018-09-14T02:08:07.925Z,8.63
2018-09-14T02:10:35.111Z,8.50
2018-09-14T02:13:02.508Z,8.73
2018-09-14T02:15:29.775Z,8.83
2018-09-14T02:17:56.985Z,8.60
2018-09-14T02:20:24.169Z,8.47
2018-09-14T02:22:51.536Z,9.60
2018-09-14T02:25:18.761Z,9.47
2018-09-14T02:27:45.999Z,8.97
2018-09-14T02:30:13.291Z,9.60
2018-09-14T02:32:40.483Z,9.03
2018-09-14T02:35:07.896Z,8.57
2018-09-14T02:37:35.175Z,8.80
2018-09-14T02:40:02.510Z,9.13
2018-09-14T02:42:29.973Z,8.20
2018-09-14T02:44:57.309Z,8.80
2018-09-14T02:47:24.572Z,9.33
2018-09-14T02:49:51.777Z,9.03
2018-09-14T02:52:18.970Z,8.67
2018-09-14T02:54:46.531Z,9.03
2018-09-14T02:57:13.684Z,8.57
2018-09-14T02:59:41.046Z,9.00
2018-09-14T03:02:09.022Z,8.40
2018-09-14T03:04:36.361Z,9.87
2018-09-14T03:07:03.569Z,8.90
2018-09-14T03:09:30.779Z,10.50
2018-09-14T03:11:57.959Z,9.50
2018-09-14T03:14:25.403Z,10.73
2018-09-14T03:16:52.586Z,10.67
2018-09-14T03:19:19.803Z,10.20
2018-09-14T03:21:47.039Z,10.13
2018-09-14T03:24:14.232Z,10.53
2018-09-14T03:26:41.624Z,10.30
2018-09-14T03:29:09.261Z,11.30
2018-09-14T03:31:36.485Z,11.20
2018-09-14T03:34:03.724Z,11.13
2018-09-14T03:36:30.931Z,12.10
2018-09-14T03:38:58.760Z,12.23
2018-09-14T03:41:25.982Z,13.00
2018-09-14T03:43:53.650Z,12.40
2018-09-14T03:46:21.304Z,14.00
2018-09-14T03:48:48.484Z,13.67
2018-09-14T03:51:15.679Z,13.97
2018-09-14T03:53:43.068Z,14.43
2018-09-14T03:56:10.528Z,15.00
2018-09-14T03:58:37.784Z,14.90
2018-09-14T04:01:04.991Z,14.20
2018-09-14T04:03:34.829Z,13.77
2018-09-14T04:06:02.135Z,13.97
2018-09-14T04:08:29.353Z,14.43
2018-09-14T04:10:56.575Z,13.60
2018-09-14T04:13:23.829Z,14.43
2018-09-14T04:15:51.225Z,14.00
2018-09-14T04:18:18.729Z,14.43
2018-09-14T04:20:46.493Z,13.70
2018-09-14T04:23:13.730Z,14.27
2018-09-14T04:25:40.945Z,15.73
2018-09-14T04:28:08.292Z,14.60
2018-09-14T04:30:35.764Z,13.83
2018-09-14T04:33:03.316Z,15.10
2018-09-14T04:35:30.524Z,14.30
2018-09-14T04:37:58.355Z,14.57
2018-09-14T04:40:25.811Z,13.70
2018-09-14T04:42:53.084Z,13.40
2018-09-14T04:45:20.439Z,14.40
2018-09-14T04:47:47.662Z,14.80
2018-09-14T04:50:15.139Z,13.20
2018-09-14T04:52:42.564Z,13.83
2018-09-14T04:55:09.817Z,14.70
2018-09-14T04:57:37.064Z,14.53
2018-09-14T05:00:04.326Z,13.37
2018-09-14T05:02:31.542Z,13.40
2018-09-14T05:04:59.070Z,12.63
2018-09-14T05:07:26.309Z,13.77
2018-09-14T05:09:53.567Z,13.33
2018-09-14T05:12:20.769Z,13.30
2018-09-14T05:14:48.030Z,12.60
2018-09-14T05:17:15.263Z,13.17
2018-09-14T05:19:42.466Z,12.67
2018-09-14T05:22:09.886Z,13.07
2018-09-14T05:24:37.298Z,13.57
2018-09-14T05:34:01.560Z,12.60
2018-09-14T05:36:28.798Z,12.40
2018-09-14T05:38:56.009Z,12.70
2018-09-14T05:41:23.306Z,12.97
2018-09-14T05:43:50.575Z,12.00
2018-09-14T05:46:17.877Z,12.00
2018-09-14T05:48:45.335Z,10.80
2018-09-14T05:51:12.589Z,10.93
2018-09-14T05:53:39.887Z,11.80
2018-09-14T05:56:07.135Z,12.13
2018-09-14T05:58:34.387Z,11.87
2018-09-14T06:01:02.011Z,11.83
2018-09-14T06:03:29.170Z,11.30
2018-09-14T06:05:56.739Z,11.60
2018-09-14T06:08:24.503Z,10.33
2018-09-14T06:10:51.733Z,11.93
2018-09-14T06:13:19.302Z,11.50
2018-09-14T06:15:46.829Z,11.40
2018-09-14T06:18:14.332Z,11.40
2018-09-14T06:20:41.785Z,11.43
2018-09-14T06:23:09.135Z,12.93
2018-09-14T06:25:36.225Z,11.40
2018-09-14T06:28:03.573Z,10.20
2018-09-14T06:30:31.216Z,10.10
2018-09-14T06:32:58.440Z,11.40
2018-09-14T06:35:25.697Z,11.37
2018-09-14T06:37:52.931Z,12.07
2018-09-14T06:40:20.265Z,12.10
2018-09-14T06:42:47.559Z,11.30
2018-09-14T06:45:15.075Z,11.37
2018-09-14T06:47:42.581Z,11.40
2018-09-14T06:50:10.087Z,13.27
2018-09-14T06:52:37.257Z,13.37
2018-09-14T06:55:04.519Z,12.80
2018-09-14T06:57:31.736Z,12.30
2018-09-14T06:59:59.222Z,14.07
2018-09-14T07:02:26.400Z,12.90
2018-09-14T07:04:54.013Z,13.40
2018-09-14T07:07:21.223Z,13.90
2018-09-14T07:09:48.455Z,12.47
2018-09-14T07:12:15.659Z,12.90
2018-09-14T07:14:43.003Z,13.43
2018-09-14T07:17:10.440Z,12.87
2018-09-14T07:19:37.689Z,12.67
2018-09-14T07:22:05.080Z,12.80
2018-09-14T07:24:32.330Z,13.47
2018-09-14T07:26:59.587Z,12.80
2018-09-14T07:29:26.889Z,14.67
2018-09-14T07:31:55.213Z,12.40
2018-09-14T07:34:22.677Z,13.33
2018-09-14T07:36:50.100Z,13.60
2018-09-14T07:39:17.316Z,13.17
2018-09-14T07:41:45.020Z,13.10
2018-09-14T07:44:12.461Z,13.37
2018-09-14T07:46:39.952Z,14.17
2018-09-14T07:49:07.144Z,13.30
2018-09-14T07:51:34.390Z,13.93
2018-09-14T07:54:01.824Z,13.20
2018-09-14T07:56:29.129Z,13.60
2018-09-14T07:58:57.268Z,13.40
2018-09-14T08:01:24.509Z,13.50
2018-09-14T08:03:51.963Z,15.33
2018-09-14T08:06:19.642Z,14.10
2018-09-14T08:08:47.423Z,14.07
2018-09-14T08:11:15.089Z,14.40
2018-09-14T08:13:42.400Z,14.80
2018-09-14T08:16:09.940Z,14.43
2018-09-14T08:18:37.262Z,13.93
2018-09-14T08:21:04.594Z,14.87
2018-09-14T08:23:31.714Z,15.40
2018-09-14T08:26:00.148Z,15.27
2018-09-14T08:28:27.395Z,14.50
2018-09-14T08:30:54.797Z,14.60
2018-09-14T08:33:22.010Z,12.97
2018-09-14T08:35:49.291Z,13.50
2018-09-14T08:38:16.507Z,13.80
2018-09-14T08:40:43.778Z,14.97
2018-09-14T08:43:11.057Z,13.40
2018-09-14T08:45:38.258Z,12.20
2018-09-14T08:48:05.504Z,12.57
2018-09-14T08:50:32.760Z,12.80
2018-09-14T08:53:00.199Z,11.60
2018-09-14T08:55:27.447Z,13.17
2018-09-14T08:57:54.821Z,12.57
2018-09-14T09:00:23.614Z,12.07
2018-09-14T09:02:51.261Z,14.80
2018-09-14T09:05:18.555Z,13.80
2018-09-14T09:07:46.168Z,12.77
2018-09-14T09:10:13.375Z,12.90
2018-09-14T09:12:40.619Z,12.30
2018-09-14T09:15:08.143Z,11.27
2018-09-14T09:17:35.379Z,13.23
2018-09-14T09:20:02.754Z,11.40
2018-09-14T09:22:30.011Z,10.67
2018-09-14T09:24:57.297Z,12.20
2018-09-14T09:27:24.714Z,12.93
2018-09-14T09:29:51.939Z,11.70
2018-09-14T09:32:19.473Z,9.77
2018-09-14T09:34:46.714Z,9.97
2018-09-14T09:37:14.032Z,8.60
2018-09-14T09:41:05.557Z,9.63
2018-09-14T09:43:32.934Z,10.70
2018-09-14T09:46:00.027Z,8.20
2018-09-14T09:48:27.224Z,7.17
2018-09-14T09:50:54.499Z,6.43
2018-09-14T09:53:21.704Z,7.90
2018-09-14T09:55:48.914Z,7.37
2018-09-14T09:58:16.125Z,7.10
2018-09-14T10:00:48.693Z,9.07
2018-09-14T10:03:16.755Z,8.37
2018-09-14T10:06:51.639Z,8.90
2018-09-14T10:09:20.024Z,7.80
2018-09-14T10:11:47.527Z,6.20
2018-09-14T10:14:15.030Z,6.43
2018-09-14T10:16:42.392Z,6.80
2018-09-14T10:19:09.845Z,6.77
2018-09-14T10:21:37.132Z,5.70
2018-09-14T10:24:04.615Z,5.70
2018-09-14T10:26:31.960Z,5.80
2018-09-14T10:28:59.436Z,5.73
2018-09-14T10:31:26.612Z,5.50
2018-09-14T10:33:53.861Z,5.03
2018-09-14T10:36:21.081Z,5.27
2018-09-14T10:38:48.998Z,5.80
2018-09-14T10:41:16.377Z,5.60
2018-09-14T10:43:44.005Z,5.73
2018-09-14T10:46:11.552Z,5.23
2018-09-14T10:48:38.875Z,5.03
2018-09-14T10:51:06.068Z,5.00
2018-09-14T10:53:33.380Z,6.33
2018-09-14T10:56:00.766Z,5.30
2018-09-14T10:58:32.319Z,4.77
2018-09-14T11:00:59.694Z,4.63
2018-09-14T11:03:26.932Z,4.10
2018-09-14T11:05:54.137Z,4.33
2018-09-14T11:08:21.412Z,4.30
2018-09-14T11:10:48.771Z,4.83
2018-09-14T11:13:16.055Z,4.47
2018-09-14T11:15:43.240Z,3.70
2018-09-14T11:18:10.462Z,4.60
2018-09-14T11:20:37.928Z,4.90
2018-09-14T11:23:05.120Z,5.17
2018-09-14T11:25:32.343Z,3.77
2018-09-14T11:27:59.614Z,3.63
2018-09-14T11:30:26.856Z,3.13
2018-09-14T11:32:54.141Z,3.33
2018-09-14T11:35:21.391Z,4.10
2018-09-14T11:37:49.066Z,3.30
2018-09-14T11:40:16.497Z,4.30
2018-09-14T11:42:43.841Z,3.40
2018-09-14T11:45:11.158Z,4.20
2018-09-14T11:47:38.570Z,4.23
2018-09-14T11:50:05.894Z,3.50
2018-09-14T11:52:33.231Z,3.83
2018-09-14T11:55:00.513Z,4.17
2018-09-14T11:57:27.881Z,4.13
2018-09-14T11:59:55.653Z,4.10
2018-09-14T12:02:24.185Z,3.70
2018-09-14T12:04:52.279Z,3.53
2018-09-14T12:07:19.602Z,4.23
2018-09-14T12:09:46.936Z,3.80
2018-09-14T12:12:14.175Z,3.77
2018-09-14T12:14:41.429Z,3.53
2018-09-14T12:17:09.164Z,3.40
2018-09-14T12:19:36.391Z,3.83
2018-09-14T12:22:03.730Z,3.20
2018-09-14T12:24:30.949Z,2.87
2018-09-14T12:26:58.363Z,3.37
2018-09-14T12:29:25.758Z,3.20
2018-09-14T12:31:53.233Z,3.03
2018-09-14T12:34:20.633Z,3.07
2018-09-14T12:36:47.930Z,3.27
2018-09-14T12:39:15.200Z,3.70
2018-09-14T12:41:42.450Z,3.23
2018-09-14T12:44:09.675Z,2.63
2018-09-14T12:46:37.018Z,3.27
2018-09-14T12:49:04.293Z,3.20
2018-09-14T12:51:31.557Z,3.80
2018-09-14T12:53:58.762Z,3.43
2018-09-14T12:56:26.413Z,2.93
2018-09-14T12:58:53.687Z,2.97
2018-09-14T13:01:20.895Z,3.90
2018-09-14T13:03:48.246Z,3.00
2018-09-14T13:06:15.473Z,2.50
2018-09-14T13:08:42.830Z,3.13
2018-09-14T13:11:10.221Z,3.30
2018-09-14T13:13:37.508Z,3.30
2018-09-14T13:16:04.761Z,3.30
2018-09-14T13:18:31.988Z,3.20
2018-09-14T13:20:59.273Z,3.50
2018-09-14T13:23:26.605Z,3.00
2018-09-14T13:25:53.869Z,3.30
2018-09-14T13:28:21.109Z,2.90
2018-09-14T13:30:48.504Z,3.00
2018-09-14T13:33:15.719Z,2.87
2018-09-14T13:35:42.918Z,3.30
2018-09-14T13:38:10.230Z,3.00
2018-09-14T13:40:37.416Z,2.90
2018-09-14T13:43:04.602Z,3.17
2018-09-14T13:45:31.847Z,3.80
2018-09-14T13:47:59.009Z,3.17
2018-09-14T13:50:26.290Z,2.90
2018-09-14T13:52:53.863Z,3.17
2018-09-14T13:55:21.099Z,3.23
2018-09-14T13:57:48.409Z,3.30
2018-09-14T14:00:15.698Z,3.10
2018-09-14T14:02:42.934Z,3.63
2018-09-14T14:05:10.586Z,4.13
2018-09-14T14:07:37.915Z,4.40
2018-09-14T14:10:05.358Z,3.40
2018-09-14T14:12:32.559Z,3.67
2018-09-14T14:14:59.991Z,3.50
2018-09-14T14:17:27.385Z,3.63
2018-09-14T14:19:54.444Z,4.10
2018-09-14T14:22:21.665Z,3.40
2018-09-14T14:24:48.960Z,3.20
2018-09-14T14:27:16.176Z,3.20
2018-09-14T14:29:43.818Z,2.80
2018-09-14T14:32:11.046Z,3.10
2018-09-14T14:34:38.414Z,3.13
2018-09-14T14:37:05.913Z,2.90
2018-09-14T14:39:33.404Z,4.00
2018-09-14T14:42:00.644Z,2.80
2018-09-14T14:44:27.954Z,2.53
2018-09-14T14:46:55.433Z,2.50
2018-09-14T14:49:22.710Z,2.53
2018-09-14T14:51:50.012Z,2.50
2018-09-14T14:54:17.212Z,2.80
2018-09-14T14:56:44.625Z,2.40
2018-09-14T14:59:11.819Z,2.70
2018-09-14T15:01:39.041Z,3.33
2018-09-14T15:04:06.309Z,3.47
2018-09-14T15:06:33.655Z,3.10
2018-09-14T15:09:00.961Z,3.17
2018-09-14T15:11:28.147Z,3.10
2018-09-14T15:13:55.454Z,3.20
2018-09-14T15:16:22.756Z,2.80
2018-09-14T15:18:50.071Z,3.27
2018-09-14T15:21:17.272Z,2.77
2018-09-14T15:23:44.643Z,3.10
2018-09-14T15:26:11.857Z,2.50
2018-09-14T15:28:39.162Z,2.73
2018-09-14T15:31:06.451Z,2.93
2018-09-14T15:33:33.897Z,3.10
2018-09-14T15:36:01.136Z,4.10
2018-09-14T15:38:28.347Z,2.90
2018-09-14T15:40:55.658Z,2.50
2018-09-14T15:43:22.934Z,2.60
2018-09-14T15:45:50.389Z,4.03
2018-09-14T15:48:17.766Z,3.10
2018-09-14T15:50:45.005Z,2.67
2018-09-14T15:53:12.296Z,2.50
2018-09-14T15:55:39.499Z,2.50
2018-09-14T15:58:06.780Z,2.77
2018-09-14T16:00:34.094Z,2.57
2018-09-14T16:03:01.431Z,2.80
2018-09-14T16:05:28.671Z,3.70
2018-09-14T16:07:56.023Z,3.57
2018-09-14T16:10:23.211Z,2.73
2018-09-14T16:12:50.617Z,3.20
2018-09-14T16:15:18.027Z,2.87
2018-09-14T16:17:45.484Z,3.10
2018-09-14T16:20:12.885Z,2.90
2018-09-14T16:22:40.299Z,3.43
2018-09-14T16:25:07.544Z,2.53
2018-09-14T16:27:35.140Z,2.73
2018-09-14T16:30:02.576Z,2.57
2018-09-14T16:32:29.986Z,4.10
2018-09-14T16:34:57.244Z,2.90
2018-09-14T16:37:24.490Z,4.80
2018-09-14T16:39:51.718Z,5.70
2018-09-14T16:42:19.160Z,3.50
2018-09-14T16:44:46.469Z,2.80
2018-09-14T16:47:13.782Z,2.70
2018-09-14T16:49:41.095Z,3.30
2018-09-14T16:52:08.307Z,3.10
2018-09-14T16:54:35.585Z,3.20
2018-09-14T16:57:02.784Z,3.07
2018-09-14T16:59:30.317Z,3.50
2018-09-14T17:01:57.522Z,2.90
2018-09-14T17:04:24.710Z,3.50
2018-09-14T17:06:52.024Z,2.80
2018-09-14T17:09:19.671Z,3.33
2018-09-14T17:11:46.947Z,2.80
2018-09-14T17:14:14.537Z,3.00
2018-09-14T17:16:42.059Z,3.17
2018-09-14T17:19:09.910Z,3.40
2018-09-14T17:21:37.258Z,2.90
2018-09-14T17:24:04.719Z,2.90
2018-09-14T17:26:32.197Z,3.27
2018-09-14T17:29:00.314Z,2.80
2018-09-14T17:31:27.500Z,3.33
2018-09-14T17:33:54.881Z,3.00
2018-09-14T17:36:22.293Z,3.60
2018-09-14T17:38:49.646Z,3.40
2018-09-14T17:41:17.105Z,3.70
2018-09-14T17:43:44.571Z,3.20
2018-09-14T17:46:11.802Z,3.10
2018-09-14T17:48:39.084Z,2.83
2018-09-14T17:51:06.624Z,3.60
2018-09-14T17:53:34.396Z,3.33
2018-09-14T17:56:01.937Z,3.60
2018-09-14T17:58:29.182Z,3.60
2018-09-14T18:00:56.597Z,3.23
2018-09-14T18:03:24.064Z,3.30
2018-09-14T18:05:51.530Z,3.33
2018-09-14T18:08:18.958Z,3.60
2018-09-14T18:10:46.182Z,3.57
2018-09-14T18:13:13.397Z,3.23
2018-09-14T18:15:40.727Z,3.80
2018-09-14T18:18:07.994Z,3.37
2018-09-14T18:20:35.313Z,3.43
2018-09-14T18:23:02.708Z,3.43
2018-09-14T18:25:30.113Z,3.10
2018-09-14T18:27:57.578Z,3.10
2018-09-14T18:30:24.927Z,3.20
2018-09-14T18:32:52.202Z,3.83
2018-09-14T18:35:19.471Z,3.80
2018-09-14T18:37:46.891Z,3.10
2018-09-14T18:40:14.438Z,3.37
2018-09-14T18:42:41.872Z,3.20
2018-09-14T18:45:09.176Z,3.67
2018-09-14T18:47:38.168Z,3.73
2018-09-14T18:50:07.640Z,3.10
2018-09-14T18:52:36.636Z,4.03
2018-09-14T18:55:03.863Z,3.57
2018-09-14T18:57:31.386Z,4.20
2018-09-14T18:59:58.628Z,4.17
2018-09-14T19:02:27.449Z,4.10
2018-09-14T19:04:54.711Z,3.40
2018-09-14T19:07:22.019Z,3.50
2018-09-14T19:09:49.410Z,3.70
2018-09-14T19:12:18.422Z,3.80
2018-09-14T19:14:46.265Z,4.00
2018-09-14T19:17:13.615Z,3.70
2018-09-14T19:19:40.810Z,3.60
2018-09-14T19:22:08.083Z,3.53
2018-09-14T19:24:37.065Z,4.03
2018-09-14T19:29:44.485Z,4.53
2018-09-14T19:32:11.729Z,4.70
2018-09-14T19:34:38.978Z,4.00
2018-09-14T19:37:07.438Z,3.43
2018-09-14T19:39:34.892Z,4.57
2018-09-14T19:42:02.321Z,4.90
2018-09-14T19:44:29.648Z,4.80
2018-09-14T19:46:58.150Z,5.03
2018-09-14T19:49:26.364Z,4.63
2018-09-14T19:51:53.712Z,5.87
2018-09-14T19:54:21.951Z,4.60
2018-09-14T19:56:49.178Z,5.20
2018-09-14T19:59:17.070Z,5.20
2018-09-14T20:01:44.262Z,4.97
2018-09-14T20:04:11.502Z,5.60
2018-09-14T20:06:38.761Z,5.23
2018-09-14T20:09:08.192Z,5.03
2018-09-14T20:11:37.066Z,5.60
2018-09-14T20:14:04.497Z,5.43
2018-09-14T20:16:31.759Z,4.43
2018-09-14T20:18:59.098Z,5.80
2018-09-14T20:21:27.254Z,5.57
2018-09-14T20:23:54.490Z,5.80
2018-09-14T20:26:21.808Z,4.83
2018-09-14T20:28:49.097Z,4.70
2018-09-14T20:31:17.042Z,6.10
2018-09-14T20:33:44.305Z,6.43
2018-09-14T20:36:11.527Z,4.90
2018-09-14T20:38:39.791Z,4.70
2018-09-14T20:41:07.804Z,5.10
2018-09-14T20:43:36.965Z,4.50
2018-09-14T20:46:04.255Z,5.40
2018-09-14T20:48:31.693Z,3.73
2018-09-14T20:50:59.053Z,4.30
2018-09-14T20:53:26.288Z,3.80
2018-09-14T20:55:53.721Z,4.00
2018-09-14T20:58:21.123Z,3.70
2018-09-14T21:00:49.169Z,3.33
2018-09-14T21:03:16.451Z,4.17
2018-09-14T21:05:43.750Z,2.93
2018-09-14T21:08:11.110Z,3.90
2018-09-14T21:10:38.362Z,4.40
2018-09-14T21:13:05.649Z,4.20
2018-09-14T21:15:32.954Z,3.70
2018-09-14T21:18:00.297Z,3.53
2018-09-14T21:20:27.546Z,3.33
2018-09-14T21:22:54.911Z,3.43
2018-09-14T21:25:22.330Z,3.60
2018-09-14T21:29:13.920Z,3.60
2018-09-14T21:31:41.439Z,4.13
2018-09-14T21:34:08.739Z,3.90
2018-09-14T21:36:35.954Z,3.70
2018-09-14T21:39:03.410Z,4.23
2018-09-14T21:41:30.756Z,4.10
2018-09-14T21:43:58.049Z,3.50
2018-09-14T21:46:25.570Z,3.53
2018-09-14T21:48:52.786Z,4.37
2018-09-14T21:51:20.151Z,4.30
2018-09-14T21:53:47.502Z,4.33
2018-09-14T21:56:14.728Z,4.27
2018-09-14T21:58:42.143Z,4.90
2018-09-14T22:01:14.146Z,5.10
2018-09-14T22:03:42.243Z,4.90
2018-09-14T22:06:09.596Z,5.50
2018-09-14T22:08:36.891Z,5.10
2018-09-14T22:11:04.238Z,5.30
2018-09-14T22:13:32.054Z,5.10
2018-09-14T22:15:59.321Z,5.57
2018-09-14T22:18:26.966Z,4.93
2018-09-14T22:20:54.277Z,5.70
2018-09-14T22:23:21.576Z,5.40
2018-09-14T22:25:48.795Z,5.10
2018-09-14T22:28:16.035Z,5.77
2018-09-14T22:30:43.293Z,5.93
2018-09-14T22:33:10.510Z,5.93
2018-09-14T22:35:37.832Z,6.67
2018-09-14T22:38:05.070Z,5.53
2018-09-14T22:40:32.263Z,6.30
2018-09-14T22:42:59.478Z,5.30
2018-09-14T22:45:26.966Z,5.10
2018-09-14T22:47:54.451Z,5.40
2018-09-14T22:50:21.910Z,6.20
2018-09-14T22:52:49.160Z,5.90
2018-09-14T22:55:16.364Z,6.30
2018-09-14T22:57:43.578Z,5.23
2018-09-14T23:00:15.164Z,5.10
2018-09-14T23:02:42.393Z,5.80
2018-09-14T23:05:09.631Z,5.20
2018-09-14T23:07:36.967Z,5.20
2018-09-14T23:10:04.191Z,5.70
2018-09-14T23:12:31.386Z,5.00
2018-09-14T23:14:58.577Z,5.60
2018-09-14T23:17:25.772Z,4.90
2018-09-14T23:19:52.982Z,6.60
2018-09-14T23:22:20.392Z,4.87
2018-09-14T23:24:47.612Z,5.50
2018-09-14T23:27:14.904Z,5.10
2018-09-14T23:29:42.157Z,5.23
2018-09-14T23:32:09.359Z,5.33
2018-09-14T23:34:36.686Z,5.50
2018-09-14T23:37:03.885Z,5.97
2018-09-14T23:39:31.077Z,5.33
2018-09-14T23:41:58.307Z,5.03
2018-09-14T23:44:25.516Z,5.97
2018-09-14T23:46:52.818Z,5.70
2018-09-14T23:49:20.045Z,5.13
2018-09-14T23:51:47.411Z,4.77
2018-09-14T23:54:14.600Z,5.50
2018-09-14T23:56:41.798Z,5.60
2018-09-14T23:59:08.989Z,4.67
